createdAt,value
2023-03-31T00:02:24.683Z,64.00
2023-03-31T00:04:55.008Z,63.57
2023-03-31T00:07:25.140Z,63.33
2023-03-31T00:10:10.306Z,62.49
2023-03-31T00:12:48.023Z,62.46
2023-03-31T00:15:18.604Z,61.86
2023-03-31T00:17:49.080Z,61.61
2023-03-31T00:20:19.253Z,61.23
2023-03-31T00:22:49.500Z,61.18
2023-03-31T00:25:19.830Z,61.25
2023-03-31T00:27:51.783Z,61.38
2023-03-31T00:30:22.156Z,61.12
2023-03-31T00:32:52.860Z,60.79
2023-03-31T00:35:23.835Z,61.18
2023-03-31T00:37:55.457Z,60.60
2023-03-31T00:40:25.688Z,61.08
2023-03-31T00:42:55.914Z,60.86
2023-03-31T00:45:28.689Z,60.87
2023-03-31T00:48:05.759Z,60.31
2023-03-31T00:50:42.685Z,60.13
2023-03-31T00:53:15.416Z,60.48
2023-03-31T00:55:49.412Z,60.56
2023-03-31T00:58:24.375Z,60.15
2023-03-31T01:00:54.765Z,60.31
2023-03-31T01:03:26.782Z,59.98
2023-03-31T01:05:59.436Z,59.82
2023-03-31T01:08:30.400Z,59.59
2023-03-31T01:11:05.651Z,59.75
2023-03-31T01:13:40.042Z,59.64
2023-03-31T01:16:12.194Z,59.39
2023-03-31T01:18:47.779Z,59.87
2023-03-31T01:21:39.038Z,59.30
2023-03-31T01:24:11.984Z,59.52
2023-03-31T01:27:00.608Z,59.27
2023-03-31T01:29:42.859Z,59.22
2023-03-31T01:32:13.577Z,59.04
2023-03-31T01:35:02.148Z,59.11
2023-03-31T01:37:58.234Z,58.94
2023-03-31T01:40:28.434Z,58.84
2023-03-31T01:43:07.729Z,59.37
2023-03-31T01:45:37.896Z,59.01
2023-03-31T01:48:19.661Z,58.89
2023-03-31T01:51:00.801Z,59.04
2023-03-31T01:53:35.452Z,59.17
2023-03-31T01:56:12.120Z,59.08
2023-03-31T01:58:51.205Z,58.46
2023-03-31T02:01:22.411Z,58.98
2023-03-31T02:04:12.711Z,59.00
2023-03-31T02:06:45.242Z,58.82
2023-03-31T02:09:18.451Z,58.59
2023-03-31T02:11:50.126Z,58.23
2023-03-31T02:14:23.588Z,58.43
2023-03-31T02:16:59.734Z,58.34
2023-03-31T02:19:33.112Z,58.58
2023-03-31T02:22:05.112Z,58.23
2023-03-31T02:24:36.504Z,58.34
2023-03-31T02:27:10.073Z,58.22
2023-03-31T02:29:40.611Z,58.13
2023-03-31T02:32:14.950Z,58.19
2023-03-31T02:34:45.350Z,57.87
2023-03-31T02:37:15.875Z,58.42
2023-03-31T02:39:50.031Z,58.09
2023-03-31T02:42:21.022Z,58.24
2023-03-31T02:44:53.320Z,57.68
2023-03-31T02:47:23.829Z,57.97
2023-03-31T02:49:55.799Z,58.20
2023-03-31T02:52:35.074Z,57.60
2023-03-31T02:55:18.215Z,57.53
2023-03-31T02:57:48.728Z,57.91
2023-03-31T03:00:26.063Z,57.70
2023-03-31T03:03:07.088Z,57.76
2023-03-31T03:05:40.242Z,57.76
2023-03-31T03:08:38.346Z,58.07
2023-03-31T03:11:24.521Z,58.04
2023-03-31T03:14:02.700Z,57.84
2023-03-31T03:16:37.044Z,57.38
2023-03-31T03:19:08.346Z,57.39
2023-03-31T03:21:38.516Z,57.42
2023-03-31T03:24:08.807Z,57.79
2023-03-31T03:26:38.832Z,57.44
2023-03-31T03:29:09.209Z,57.44
2023-03-31T03:31:39.586Z,57.75
2023-03-31T03:34:11.135Z,57.32
2023-03-31T03:36:42.089Z,57.71
2023-03-31T03:39:12.160Z,57.67
2023-03-31T03:41:42.351Z,57.52
2023-03-31T03:44:12.363Z,57.06
2023-03-31T03:46:42.890Z,57.19
2023-03-31T03:49:13.543Z,57.04
2023-03-31T03:51:43.635Z,57.16
2023-03-31T03:54:13.933Z,57.37
2023-03-31T03:56:44.085Z,57.23
2023-03-31T03:59:14.436Z,57.21
2023-03-31T04:01:44.860Z,57.02
2023-03-31T04:04:14.897Z,57.20
2023-03-31T04:06:45.103Z,56.98
2023-03-31T04:09:15.673Z,56.99
2023-03-31T04:11:45.749Z,57.06
2023-03-31T04:14:15.882Z,56.73
2023-03-31T04:16:48.152Z,56.72
2023-03-31T04:19:19.249Z,56.32
2023-03-31T04:21:52.150Z,56.75
2023-03-31T04:24:23.207Z,56.67
2023-03-31T04:26:53.794Z,56.41
2023-03-31T04:29:28.075Z,56.24
2023-03-31T04:32:01.415Z,56.13
2023-03-31T04:34:38.040Z,56.03
2023-03-31T04:37:12.223Z,55.75
2023-03-31T04:39:42.910Z,55.68
2023-03-31T04:42:12.982Z,55.83
2023-03-31T04:44:43.112Z,55.65
2023-03-31T04:47:13.154Z,55.91
2023-03-31T04:49:43.331Z,55.88
2023-03-31T04:52:13.348Z,55.78
2023-03-31T04:54:43.420Z,55.77
2023-03-31T04:57:13.517Z,56.00
2023-03-31T04:59:43.588Z,55.54
2023-03-31T05:02:13.714Z,55.78
2023-03-31T05:04:43.790Z,55.84
2023-03-31T05:07:13.812Z,55.76
2023-03-31T05:09:44.042Z,55.77
2023-03-31T05:12:14.665Z,56.09
2023-03-31T05:14:44.754Z,55.58
2023-03-31T05:17:14.896Z,55.73
2023-03-31T05:19:45.005Z,55.65
2023-03-31T05:22:15.856Z,55.49
2023-03-31T05:24:45.886Z,55.44
2023-03-31T05:27:15.987Z,55.34
2023-03-31T05:29:46.097Z,55.35
2023-03-31T05:32:16.729Z,55.38
2023-03-31T05:34:48.866Z,55.42
2023-03-31T05:37:20.674Z,55.34
2023-03-31T05:39:51.067Z,55.14
2023-03-31T05:42:21.843Z,55.21
2023-03-31T05:44:51.976Z,55.15
2023-03-31T05:47:22.473Z,55.17
2023-03-31T05:49:52.682Z,55.19
2023-03-31T05:52:22.955Z,55.06
2023-03-31T05:54:53.198Z,54.89
2023-03-31T05:57:23.605Z,54.88
2023-03-31T05:59:53.759Z,54.88
2023-03-31T06:02:24.084Z,55.10
2023-03-31T06:04:54.674Z,54.70
2023-03-31T06:07:26.367Z,54.80
2023-03-31T06:09:57.007Z,54.66
2023-03-31T06:12:27.664Z,54.43
2023-03-31T06:14:57.737Z,54.39
2023-03-31T06:17:27.930Z,54.69
2023-03-31T06:19:58.270Z,54.47
2023-03-31T06:22:28.906Z,54.52
2023-03-31T06:24:59.100Z,54.20
2023-03-31T06:27:29.689Z,54.38
2023-03-31T06:29:59.710Z,54.58
2023-03-31T06:32:29.832Z,53.97
2023-03-31T06:34:59.972Z,54.33
2023-03-31T06:37:30.178Z,54.07
2023-03-31T06:40:00.396Z,54.00
2023-03-31T06:42:30.456Z,54.20
2023-03-31T06:45:00.671Z,54.13
2023-03-31T06:47:31.407Z,54.15
2023-03-31T06:50:01.743Z,53.95
2023-03-31T06:52:32.840Z,53.88
2023-03-31T06:55:03.259Z,53.59
2023-03-31T06:57:35.426Z,53.62
2023-03-31T07:00:07.039Z,53.74
2023-03-31T07:02:38.416Z,53.66
2023-03-31T07:05:08.968Z,53.65
2023-03-31T07:07:39.117Z,53.69
2023-03-31T07:10:09.477Z,53.74
2023-03-31T07:12:39.612Z,53.37
2023-03-31T07:15:09.914Z,53.31
2023-03-31T07:17:43.506Z,53.22
2023-03-31T07:20:17.527Z,53.43
2023-03-31T07:22:48.331Z,53.16
2023-03-31T07:25:19.356Z,52.99
2023-03-31T07:27:50.373Z,53.09
2023-03-31T07:30:21.583Z,53.04
2023-03-31T07:32:52.692Z,53.13
2023-03-31T07:35:24.392Z,53.02
2023-03-31T07:37:54.607Z,52.61
2023-03-31T07:40:26.852Z,52.77
2023-03-31T07:42:57.268Z,52.67
2023-03-31T07:45:28.281Z,52.50
2023-03-31T07:47:58.551Z,52.42
2023-03-31T07:50:29.413Z,52.39
2023-03-31T07:53:01.153Z,52.45
2023-03-31T07:55:31.859Z,52.19
2023-03-31T07:58:02.479Z,52.40
2023-03-31T08:00:33.056Z,52.14
2023-03-31T08:03:03.248Z,51.93
2023-03-31T08:05:33.687Z,52.28
2023-03-31T08:08:03.781Z,51.79
2023-03-31T08:10:33.881Z,52.31
2023-03-31T08:13:03.954Z,52.07
2023-03-31T08:15:34.017Z,51.74
2023-03-31T08:18:05.107Z,52.12
2023-03-31T08:20:35.188Z,51.96
2023-03-31T08:23:07.206Z,51.95
2023-03-31T08:25:37.616Z,51.39
2023-03-31T08:28:08.338Z,51.36
2023-03-31T08:30:42.490Z,51.78
2023-03-31T08:33:15.762Z,51.60
2023-03-31T08:35:46.025Z,51.51
2023-03-31T08:38:16.171Z,51.32
2023-03-31T08:40:46.341Z,51.13
2023-03-31T08:43:20.806Z,50.97
2023-03-31T08:45:51.741Z,51.01
2023-03-31T08:48:30.740Z,50.87
2023-03-31T08:51:05.593Z,50.67
2023-03-31T08:53:45.529Z,50.87
2023-03-31T08:56:21.000Z,50.94
2023-03-31T08:58:52.548Z,51.05
2023-03-31T09:01:52.196Z,50.51
2023-03-31T09:04:31.073Z,50.62
2023-03-31T09:07:19.474Z,50.79
2023-03-31T09:10:05.314Z,50.31
2023-03-31T09:12:42.093Z,50.77
2023-03-31T09:15:19.056Z,50.61
2023-03-31T09:17:52.930Z,50.50
2023-03-31T09:20:33.438Z,50.38
2023-03-31T09:23:07.128Z,50.38
2023-03-31T09:25:40.019Z,50.43
2023-03-31T09:28:21.645Z,49.91
2023-03-31T09:30:52.409Z,50.16
2023-03-31T09:33:33.426Z,49.51
2023-03-31T09:36:04.791Z,49.71
2023-03-31T09:38:35.217Z,50.03
2023-03-31T09:41:06.824Z,49.58
2023-03-31T09:43:37.141Z,49.94
2023-03-31T09:46:15.387Z,49.94
2023-03-31T09:48:52.181Z,49.88
2023-03-31T09:51:28.063Z,49.56
2023-03-31T09:54:00.892Z,49.43
2023-03-31T09:56:51.748Z,49.41
2023-03-31T09:59:31.727Z,50.01
2023-03-31T10:02:04.506Z,50.09
2023-03-31T10:04:36.510Z,50.02
2023-03-31T10:07:06.938Z,49.38
2023-03-31T10:09:40.233Z,50.04
2023-03-31T10:12:17.705Z,49.85
2023-03-31T10:14:51.981Z,49.60
2023-03-31T10:17:24.037Z,49.92
2023-03-31T10:19:55.928Z,49.75
2023-03-31T10:22:26.143Z,50.15
2023-03-31T10:24:56.745Z,49.71
2023-03-31T10:27:28.692Z,50.26
2023-03-31T10:30:06.830Z,50.19
2023-03-31T10:32:42.272Z,50.37
2023-03-31T10:35:26.704Z,49.85
2023-03-31T10:37:58.761Z,50.22
2023-03-31T10:40:30.013Z,50.09
2023-03-31T10:43:12.402Z,50.07
2023-03-31T10:45:49.207Z,50.08
2023-03-31T10:48:31.464Z,50.11
2023-03-31T10:51:17.000Z,50.59
2023-03-31T10:53:51.119Z,50.26
2023-03-31T10:56:30.194Z,50.75
2023-03-31T10:59:07.744Z,50.92
2023-03-31T11:01:57.776Z,50.52
2023-03-31T11:04:48.210Z,50.77
2023-03-31T11:07:34.988Z,50.81
2023-03-31T11:10:23.567Z,50.95
2023-03-31T11:13:09.965Z,51.05
2023-03-31T11:15:40.127Z,50.82
2023-03-31T11:18:19.858Z,51.14
2023-03-31T11:20:56.279Z,51.36
2023-03-31T11:23:46.369Z,51.57
2023-03-31T11:26:17.090Z,51.22
2023-03-31T11:29:01.333Z,51.53
2023-03-31T11:31:35.658Z,52.06
2023-03-31T11:34:34.679Z,51.52
2023-03-31T11:37:21.050Z,52.08
2023-03-31T11:39:57.040Z,51.82
2023-03-31T11:42:34.598Z,52.34
2023-03-31T11:45:15.863Z,52.23
2023-03-31T11:47:48.480Z,52.48
2023-03-31T11:50:21.359Z,52.57
2023-03-31T11:53:14.258Z,52.43
2023-03-31T11:55:45.198Z,52.37
2023-03-31T11:58:15.298Z,52.88
2023-03-31T12:01:03.161Z,52.73
2023-03-31T12:03:51.917Z,52.94
2023-03-31T12:06:24.116Z,53.16
2023-03-31T12:08:54.417Z,52.99
2023-03-31T12:11:42.909Z,53.25
2023-03-31T12:14:28.115Z,52.99
2023-03-31T12:17:02.523Z,53.29
2023-03-31T12:19:47.603Z,53.22
2023-03-31T12:22:23.668Z,53.26
2023-03-31T12:24:54.575Z,53.36
2023-03-31T12:27:29.314Z,53.40
2023-03-31T12:30:02.177Z,53.70
2023-03-31T12:32:34.861Z,53.54
2023-03-31T12:35:12.881Z,53.71
2023-03-31T12:37:49.205Z,53.67
2023-03-31T12:40:19.344Z,53.67
2023-03-31T12:43:06.805Z,53.75
2023-03-31T12:45:52.603Z,54.10
2023-03-31T12:48:28.712Z,54.11
2023-03-31T12:50:58.755Z,54.22
2023-03-31T12:53:37.845Z,54.43
2023-03-31T12:56:08.356Z,54.42
2023-03-31T12:58:38.672Z,54.48
2023-03-31T13:01:15.977Z,54.74
2023-03-31T13:03:46.858Z,54.74
2023-03-31T13:06:32.627Z,54.65
2023-03-31T13:09:09.846Z,54.98
2023-03-31T13:11:40.034Z,55.28
2023-03-31T13:14:19.385Z,55.12
2023-03-31T13:16:52.110Z,55.25
2023-03-31T13:19:32.724Z,55.51
2023-03-31T13:22:04.681Z,55.54
2023-03-31T13:24:36.467Z,55.51
2023-03-31T13:27:25.100Z,55.52
2023-03-31T13:29:55.337Z,55.72
2023-03-31T13:32:27.636Z,55.84
2023-03-31T13:35:05.092Z,56.20
2023-03-31T13:37:46.390Z,55.99
2023-03-31T13:40:31.975Z,56.10
2023-03-31T13:43:28.686Z,56.06
2023-03-31T13:46:11.908Z,56.12
2023-03-31T13:48:57.859Z,56.07
2023-03-31T13:51:34.377Z,56.23
2023-03-31T13:54:05.078Z,56.55
2023-03-31T13:56:41.036Z,56.48
2023-03-31T13:59:22.489Z,56.52
2023-03-31T14:02:11.624Z,56.45
2023-03-31T14:04:49.790Z,56.55
2023-03-31T14:07:23.577Z,56.48
2023-03-31T14:09:55.550Z,56.62
2023-03-31T14:12:40.007Z,56.83
2023-03-31T14:15:32.924Z,56.91
2023-03-31T14:18:04.188Z,57.07
2023-03-31T14:20:43.334Z,56.84
2023-03-31T14:23:26.121Z,57.01
2023-03-31T14:26:09.185Z,57.11
2023-03-31T14:28:39.950Z,57.02
2023-03-31T14:31:24.505Z,57.26
2023-03-31T14:34:14.596Z,57.22
2023-03-31T14:37:11.400Z,57.23
2023-03-31T14:40:13.555Z,57.24
2023-03-31T14:42:51.002Z,57.54
2023-03-31T14:45:26.794Z,57.20
2023-03-31T14:48:01.263Z,57.11
2023-03-31T14:50:33.991Z,57.65
2023-03-31T14:53:06.205Z,57.41
2023-03-31T14:55:54.444Z,57.55
2023-03-31T14:58:30.417Z,57.51
2023-03-31T15:01:01.471Z,57.39
2023-03-31T15:03:32.172Z,57.65
2023-03-31T15:06:03.869Z,57.74
2023-03-31T15:08:35.804Z,57.67
2023-03-31T15:11:13.129Z,57.87
2023-03-31T15:14:00.562Z,57.64
2023-03-31T15:16:45.800Z,57.67
2023-03-31T15:19:24.604Z,57.57
2023-03-31T15:21:57.952Z,57.59
2023-03-31T15:24:28.331Z,57.72
2023-03-31T15:27:04.882Z,57.79
2023-03-31T15:29:49.960Z,57.95
2023-03-31T15:32:20.411Z,57.74
2023-03-31T15:34:52.679Z,58.01
2023-03-31T15:37:29.250Z,57.90
2023-03-31T15:40:00.382Z,57.94
2023-03-31T15:42:30.962Z,58.01
2023-03-31T15:45:19.860Z,57.73
2023-03-31T15:47:55.383Z,57.87
2023-03-31T15:50:26.298Z,57.96
2023-03-31T15:52:59.405Z,57.86
2023-03-31T15:58:18.289Z,57.80
2023-03-31T16:00:53.792Z,57.76
2023-03-31T16:03:31.767Z,57.89
2023-03-31T16:06:04.281Z,57.93
2023-03-31T16:08:34.770Z,57.73
2023-03-31T16:11:10.066Z,58.19
2023-03-31T16:13:42.610Z,57.94
2023-03-31T16:16:15.332Z,58.00
2023-03-31T16:18:51.612Z,57.75
2023-03-31T16:21:24.701Z,58.09
2023-03-31T16:23:57.777Z,57.98
2023-03-31T16:26:29.841Z,58.09
2023-03-31T16:29:02.577Z,57.93
2023-03-31T16:31:36.096Z,58.20
2023-03-31T16:34:08.336Z,58.22
2023-03-31T16:36:50.896Z,57.75
2023-03-31T16:39:21.034Z,58.17
2023-03-31T16:41:51.353Z,57.93
2023-03-31T16:44:21.863Z,58.13
2023-03-31T16:46:52.456Z,58.38
2023-03-31T16:49:22.855Z,58.20
2023-03-31T16:51:54.078Z,58.42
2023-03-31T16:54:24.273Z,58.52
2023-03-31T16:56:54.727Z,58.40
2023-03-31T16:59:25.196Z,58.27
2023-03-31T17:01:55.435Z,58.38
2023-03-31T17:04:25.716Z,58.88
2023-03-31T17:06:55.944Z,58.61
2023-03-31T17:09:26.105Z,58.33
2023-03-31T17:11:56.430Z,58.59
2023-03-31T17:14:26.702Z,58.88
2023-03-31T17:16:56.922Z,58.68
2023-03-31T17:19:29.232Z,58.87
2023-03-31T17:22:03.260Z,58.95
2023-03-31T17:24:33.323Z,59.19
2023-03-31T17:27:03.640Z,59.09
2023-03-31T17:29:33.917Z,59.01
2023-03-31T17:32:04.660Z,59.22
2023-03-31T17:34:34.841Z,59.02
2023-03-31T17:37:05.780Z,59.16
2023-03-31T17:39:36.016Z,59.05
2023-03-31T17:42:06.747Z,59.15
2023-03-31T17:44:36.927Z,59.02
2023-03-31T17:47:07.247Z,59.20
2023-03-31T17:49:37.340Z,59.20
2023-03-31T17:52:07.497Z,59.31
2023-03-31T17:54:37.743Z,59.21
2023-03-31T17:57:08.220Z,59.39
2023-03-31T17:59:39.031Z,59.30
2023-03-31T18:02:09.557Z,59.17
2023-03-31T18:04:39.785Z,59.35
2023-03-31T18:07:09.844Z,59.37
2023-03-31T18:09:40.978Z,59.19
2023-03-31T18:12:11.186Z,59.46
2023-03-31T18:14:41.877Z,59.33
2023-03-31T18:17:16.182Z,59.76
2023-03-31T18:19:46.459Z,59.65
2023-03-31T18:22:16.567Z,59.66
2023-03-31T18:24:47.241Z,59.85
2023-03-31T18:27:17.466Z,59.74
2023-03-31T18:29:47.543Z,59.61
2023-03-31T18:32:17.832Z,59.82
2023-03-31T18:34:48.586Z,59.82
2023-03-31T18:37:18.595Z,59.58
2023-03-31T18:39:49.176Z,59.46
2023-03-31T18:42:21.155Z,59.27
2023-03-31T18:44:51.358Z,59.89
2023-03-31T18:47:21.906Z,59.53
2023-03-31T18:49:55.276Z,59.43
2023-03-31T18:52:25.538Z,59.56
2023-03-31T18:54:55.639Z,59.90
2023-03-31T18:57:25.775Z,59.69
2023-03-31T18:59:55.934Z,59.72
2023-03-31T19:02:26.176Z,59.58
2023-03-31T19:04:56.328Z,59.79
2023-03-31T19:07:26.379Z,59.76
2023-03-31T19:09:56.652Z,59.82
2023-03-31T19:12:27.096Z,59.52
2023-03-31T19:14:57.406Z,60.03
2023-03-31T19:17:27.764Z,59.87
2023-03-31T19:19:58.203Z,59.91
2023-03-31T19:22:31.186Z,60.10
2023-03-31T19:25:01.749Z,59.81
2023-03-31T19:27:32.959Z,59.81
2023-03-31T19:30:03.586Z,59.85
2023-03-31T19:32:33.617Z,59.52
2023-03-31T19:35:03.743Z,59.89
2023-03-31T19:37:33.835Z,59.59
2023-03-31T19:40:04.718Z,59.65
2023-03-31T19:42:35.063Z,59.70
2023-03-31T19:45:05.301Z,59.81
2023-03-31T19:47:35.882Z,59.96
2023-03-31T19:50:06.277Z,59.86
2023-03-31T19:52:37.528Z,60.08
2023-03-31T19:55:07.720Z,59.72
2023-03-31T19:57:38.031Z,59.88
2023-03-31T20:00:09.425Z,60.02
2023-03-31T20:02:40.030Z,60.03
2023-03-31T20:05:10.595Z,59.78
2023-03-31T20:07:40.621Z,59.67
2023-03-31T20:10:13.072Z,59.99
2023-03-31T20:12:43.523Z,59.94
2023-03-31T20:15:13.526Z,59.99
2023-03-31T20:17:43.602Z,60.01
2023-03-31T20:20:14.195Z,60.01
2023-03-31T20:22:45.040Z,60.14
2023-03-31T20:25:15.689Z,60.18
2023-03-31T20:27:45.760Z,60.17
2023-03-31T20:30:16.465Z,60.39
2023-03-31T20:32:46.598Z,60.29
2023-03-31T20:35:16.701Z,60.30
2023-03-31T20:37:46.745Z,60.10
2023-03-31T20:40:17.376Z,59.94
2023-03-31T20:42:47.894Z,60.26
2023-03-31T20:45:17.964Z,60.47
2023-03-31T20:47:48.800Z,60.17
2023-03-31T20:50:19.030Z,60.36
2023-03-31T20:52:49.520Z,60.24
2023-03-31T20:55:19.625Z,60.52
2023-03-31T20:57:49.728Z,60.07
2023-03-31T21:00:20.009Z,60.56
2023-03-31T21:02:49.979Z,60.53
2023-03-31T21:05:20.058Z,60.22
2023-03-31T21:07:50.774Z,60.42
2023-03-31T21:10:20.872Z,60.18
2023-03-31T21:12:51.299Z,60.54
2023-03-31T21:15:21.742Z,60.24
2023-03-31T21:17:51.881Z,60.54
2023-03-31T21:20:22.006Z,60.71
2023-03-31T21:22:52.072Z,60.40
2023-03-31T21:25:22.297Z,60.36
2023-03-31T21:27:52.982Z,60.37
2023-03-31T21:30:23.514Z,60.53
2023-03-31T21:32:54.235Z,60.82
2023-03-31T21:35:24.483Z,60.82
2023-03-31T21:37:54.754Z,60.96
2023-03-31T21:40:25.273Z,60.82
2023-03-31T21:42:55.384Z,60.43
2023-03-31T21:45:28.684Z,60.77
2023-03-31T21:47:59.439Z,60.92
2023-03-31T21:50:29.805Z,60.98
2023-03-31T21:53:00.963Z,61.02
2023-03-31T21:55:31.064Z,61.12
2023-03-31T21:58:02.035Z,60.67
2023-03-31T22:00:32.803Z,61.00
2023-03-31T22:03:22.180Z,60.90
2023-03-31T22:05:54.130Z,60.82
2023-03-31T22:08:24.164Z,60.78
2023-03-31T22:10:55.115Z,61.25
2023-03-31T22:13:25.752Z,60.80
2023-03-31T22:15:56.180Z,61.17
2023-03-31T22:18:26.877Z,60.89
2023-03-31T22:20:58.344Z,60.75
2023-03-31T22:23:29.111Z,60.81
2023-03-31T22:25:59.131Z,61.18
2023-03-31T22:28:30.303Z,60.89
2023-03-31T22:31:00.802Z,60.87
2023-03-31T22:33:30.851Z,60.94
2023-03-31T22:36:00.975Z,60.97
2023-03-31T22:38:31.897Z,60.92
2023-03-31T22:41:02.950Z,60.98
2023-03-31T22:43:34.003Z,61.07
2023-03-31T22:46:05.292Z,61.56
2023-03-31T22:48:35.992Z,61.09
2023-03-31T22:51:10.297Z,61.49
2023-03-31T22:53:40.389Z,61.49
2023-03-31T22:56:12.130Z,61.51
2023-03-31T22:58:42.208Z,61.17
2023-03-31T23:01:16.855Z,63.06
2023-03-31T23:03:48.165Z,63.33
2023-03-31T23:06:18.768Z,63.45
2023-03-31T23:08:50.381Z,63.94
2023-03-31T23:11:20.837Z,63.61
2023-03-31T23:13:50.951Z,63.80
2023-03-31T23:16:23.147Z,64.09
2023-03-31T23:18:54.701Z,63.94
2023-03-31T23:21:26.146Z,64.24
2023-03-31T23:23:57.899Z,64.30
2023-03-31T23:26:29.213Z,64.60
2023-03-31T23:28:59.853Z,64.27
2023-03-31T23:31:30.983Z,64.25
2023-03-31T23:34:01.362Z,64.45
2023-03-31T23:36:32.538Z,64.74
2023-03-31T23:39:02.548Z,64.71
2023-03-31T23:41:33.184Z,64.66
2023-03-31T23:44:03.629Z,64.30
2023-03-31T23:46:34.968Z,64.39
2023-03-31T23:49:06.268Z,64.38
2023-03-31T23:51:36.350Z,64.56
2023-03-31T23:54:06.349Z,64.62
2023-03-31T23:56:36.416Z,64.43
2023-03-31T23:59:06.443Z,64.40
